Time;durP1;ratioP1;P1;durP2;ratioP2;P2;SDS_P1;SDS_P2;PMS_P1;PMS_P2;Temp;Humidity;BMP_temperature;BMP_pressure;BME280_temperature;BME280_humidity;BME280_pressure;Samples;Min_cycle;Max_cycle;Signal;HPM_P1;HPM_P2
2022/01/12 00:01:46;;;;;;;0.20;0.20;;;;;;;;;;5052810;28;20207;-70
2022/01/12 00:04:13;;;;;;;2.17;2.03;;;;;;;;;;5054550;28;20268;-72
2022/01/12 00:06:41;;;;;;;1.17;0.83;;;;;;;;;;5055507;28;20195;-72
2022/01/12 00:09:08;;;;;;;0.73;0.73;;;;;;;;;;5056402;28;20198;-71
2022/01/12 00:11:37;;;;;;;1.90;1.53;;;;;;;;;;5055801;28;20229;-71
2022/01/12 00:14:06;;;;;;;0.10;0.10;;;;;;;;;;5056630;28;20251;-71
2022/01/12 00:16:33;;;;;;;0.00;0.00;;;;;;;;;;5052650;28;20623;-72
2022/01/12 00:19:01;;;;;;;0.00;0.00;;;;;;;;;;5049241;28;20207;-71
2022/01/12 00:21:29;;;;;;;0.00;0.00;;;;;;;;;;5047213;28;21043;-71
2022/01/12 00:23:56;;;;;;;0.30;0.30;;;;;;;;;;5049161;28;20256;-71
2022/01/12 00:26:41;;;;;;;1.80;0.77;;;;;;;;;;5048455;28;20578;-71
2022/01/12 00:34:41;;;;;;;1.60;1.50;;;;;;;;;;5050651;28;20232;-73
2022/01/12 00:37:08;;;;;;;0.13;0.13;;;;;;;;;;5049253;28;20213;-73
2022/01/12 00:39:36;;;;;;;1.30;1.13;;;;;;;;;;5051632;28;20230;-74
2022/01/12 00:42:05;;;;;;;0.00;0.00;;;;;;;;;;5050132;28;20663;-73
2022/01/12 00:44:36;;;;;;;0.37;0.37;;;;;;;;;;5049029;28;20203;-73
2022/01/12 00:47:03;;;;;;;0.00;0.00;;;;;;;;;;5049489;28;20209;-73
2022/01/12 00:49:31;;;;;;;0.50;0.50;;;;;;;;;;5052696;28;20593;-74
2022/01/12 00:51:58;;;;;;;0.27;0.27;;;;;;;;;;5047090;28;20195;-73
2022/01/12 00:54:26;;;;;;;3.00;2.43;;;;;;;;;;5048471;28;20579;-73
2022/01/12 00:56:53;;;;;;;3.00;1.73;;;;;;;;;;5049146;28;20594;-73
2022/01/12 00:59:21;;;;;;;0.47;0.47;;;;;;;;;;5048009;28;20966;-73
2022/01/12 01:01:49;;;;;;;2.13;0.70;;;;;;;;;;5051077;28;20234;-72
2022/01/12 01:04:17;;;;;;;0.23;0.23;;;;;;;;;;5047600;28;20853;-74
2022/01/12 01:06:44;;;;;;;1.47;1.33;;;;;;;;;;5047283;28;20202;-72
2022/01/12 01:09:12;;;;;;;0.20;0.20;;;;;;;;;;5048504;28;20734;-72
2022/01/12 01:11:39;;;;;;;0.50;0.50;;;;;;;;;;5049892;28;20202;-73
2022/01/12 01:14:15;;;;;;;10.37;9.33;;;;;;;;;;5048843;28;20218;-72
2022/01/12 01:16:51;;;;;;;3.83;2.00;;;;;;;;;;5047665;28;20285;-73
2022/01/12 01:27:35;;;;;;;3.17;2.33;;;;;;;;;;5048879;28;21106;-72
2022/01/12 01:30:03;;;;;;;1.33;0.97;;;;;;;;;;5048297;28;20202;-73
2022/01/12 01:32:30;;;;;;;0.00;0.00;;;;;;;;;;5047839;28;20289;-72
2022/01/12 01:34:59;;;;;;;0.77;0.77;;;;;;;;;;5048095;28;20206;-73
2022/01/12 01:37:26;;;;;;;0.13;0.13;;;;;;;;;;5047737;28;20195;-73
2022/01/12 01:39:54;;;;;;;0.67;0.67;;;;;;;;;;5048524;28;20202;-73
2022/01/12 01:42:27;;;;;;;1.07;0.57;;;;;;;;;;5048940;28;20809;-72
2022/01/12 01:53:21;;;;;;;2.37;2.23;;;;;;;;;;5048818;28;20210;-73
2022/01/12 01:55:49;;;;;;;4.13;2.67;;;;;;;;;;5046540;28;20207;-73
2022/01/12 01:58:17;;;;;;;0.17;0.17;;;;;;;;;;5048642;28;20645;-71
2022/01/12 02:00:44;;;;;;;1.60;1.50;;;;;;;;;;5050833;28;20211;-71
2022/01/12 02:03:12;;;;;;;1.70;1.60;;;;;;;;;;5048875;28;20191;-73
2022/01/12 02:05:42;;;;;;;1.80;1.17;;;;;;;;;;5047943;28;20246;-71
2022/01/12 02:08:09;;;;;;;0.30;0.30;;;;;;;;;;5048289;28;20195;-71
2022/01/12 02:10:37;;;;;;;4.83;3.37;;;;;;;;;;5048991;28;20876;-72
2022/01/12 02:13:04;;;;;;;0.60;0.60;;;;;;;;;;5048059;28;20241;-73
2022/01/12 02:15:32;;;;;;;2.37;0.87;;;;;;;;;;5046873;28;20202;-72
2022/01/12 02:18:13;;;;;;;5.97;2.03;;;;;;;;;;5050588;28;20187;-73
2022/01/12 02:40:12;;;;;;;0.00;0.00;;;;;;;;;;5054090;28;20268;-72
2022/01/12 02:42:43;;;;;;;3.30;0.67;;;;;;;;;;5051329;28;20871;-72
2022/01/12 02:50:47;;;;;;;0.00;0.00;;;;;;;;;;5054048;28;20265;-74
2022/01/12 02:56:01;;;;;;;0.53;0.53;;;;;;;;;;5049886;28;20220;-73
2022/01/12 02:58:29;;;;;;;0.37;0.37;;;;;;;;;;5051735;28;20190;-72
2022/01/12 03:01:14;;;;;;;0.10;0.10;;;;;;;;;;5049244;28;20594;-74
2022/01/12 03:03:43;;;;;;;2.30;0.83;;;;;;;;;;5051246;28;20207;-75
2022/01/12 03:06:16;;;;;;;0.30;0.30;;;;;;;;;;5047588;28;20203;-74
2022/01/12 03:08:45;;;;;;;0.50;0.50;;;;;;;;;;5051898;28;20203;-75
2022/01/12 03:11:15;;;;;;;0.00;0.00;;;;;;;;;;5052231;28;20216;-75
2022/01/12 03:13:42;;;;;;;0.57;0.57;;;;;;;;;;5050113;28;20230;-75
2022/01/12 03:16:14;;;;;;;0.00;0.00;;;;;;;;;;5051504;28;20770;-72
2022/01/12 03:18:42;;;;;;;0.00;0.00;;;;;;;;;;5050382;28;20203;-74
2022/01/12 03:21:10;;;;;;;0.00;0.00;;;;;;;;;;5051512;28;20219;-74
2022/01/12 03:23:38;;;;;;;0.00;0.00;;;;;;;;;;5050467;28;20206;-75
2022/01/12 03:26:08;;;;;;;0.57;0.57;;;;;;;;;;5050371;28;20195;-74
2022/01/12 03:28:37;;;;;;;0.90;0.90;;;;;;;;;;5051899;28;20199;-74
2022/01/12 03:31:09;;;;;;;0.60;0.60;;;;;;;;;;5051776;28;20232;-74
2022/01/12 03:33:51;;;;;;;0.23;0.23;;;;;;;;;;5049257;28;20256;-74
2022/01/12 03:39:07;;;;;;;0.00;0.00;;;;;;;;;;5049275;28;20198;-72
2022/01/12 03:41:37;;;;;;;0.00;0.00;;;;;;;;;;5063628;28;20250;-73
2022/01/12 03:44:06;;;;;;;2.00;1.90;;;;;;;;;;5063610;28;20203;-73
2022/01/12 03:46:35;;;;;;;0.00;0.00;;;;;;;;;;5063306;28;20987;-73
2022/01/12 03:49:02;;;;;;;0.10;0.10;;;;;;;;;;5064482;28;20199;-73
2022/01/12 03:51:30;;;;;;;0.00;0.00;;;;;;;;;;5064708;28;20855;-74
2022/01/12 03:53:57;;;;;;;0.00;0.00;;;;;;;;;;5059831;28;20655;-73
2022/01/12 03:56:25;;;;;;;0.00;0.00;;;;;;;;;;5054999;28;20197;-74
2022/01/12 03:58:53;;;;;;;0.37;0.37;;;;;;;;;;5056001;28;20195;-74
2022/01/12 04:01:21;;;;;;;1.10;1.10;;;;;;;;;;5055017;28;20230;-74
2022/01/12 04:03:59;;;;;;;1.70;1.30;;;;;;;;;;5056710;28;20218;-73
2022/01/12 04:09:12;;;;;;;1.03;0.17;;;;;;;;;;5057621;28;20698;-73
2022/01/12 04:11:40;;;;;;;2.23;2.13;;;;;;;;;;5056644;28;20215;-73
2022/01/12 04:14:09;;;;;;;0.30;0.30;;;;;;;;;;5055820;28;20231;-73
2022/01/12 04:16:38;;;;;;;0.20;0.20;;;;;;;;;;5056233;28;20205;-72
2022/01/12 04:19:05;;;;;;;0.00;0.00;;;;;;;;;;5055936;28;20553;-73
2022/01/12 04:21:41;;;;;;;0.33;0.33;;;;;;;;;;5057941;28;20230;-73
2022/01/12 04:24:08;;;;;;;0.00;0.00;;;;;;;;;;5057561;28;20248;-74
2022/01/12 04:26:35;;;;;;;3.17;2.90;;;;;;;;;;5055589;28;20203;-74
2022/01/12 04:29:03;;;;;;;0.00;0.00;;;;;;;;;;5055859;28;20210;-72
2022/01/12 04:31:32;;;;;;;0.00;0.00;;;;;;;;;;5056340;28;20547;-73
2022/01/12 04:33:59;;;;;;;0.10;0.10;;;;;;;;;;5055281;28;20195;-73
2022/01/12 04:36:26;;;;;;;0.03;0.03;;;;;;;;;;5052629;28;20206;-73
2022/01/12 04:38:54;;;;;;;0.43;0.43;;;;;;;;;;5054994;28;20207;-73
2022/01/12 04:41:24;;;;;;;0.93;0.93;;;;;;;;;;5054179;28;21009;-73
2022/01/12 04:43:52;;;;;;;0.00;0.00;;;;;;;;;;5060811;28;20195;-73
2022/01/12 04:46:30;;;;;;;0.00;0.00;;;;;;;;;;5067231;28;20203;-72
2022/01/12 04:49:27;;;;;;;0.67;0.67;;;;;;;;;;5067116;28;20195;-74
2022/01/12 04:51:54;;;;;;;1.30;0.93;;;;;;;;;;5068354;28;20218;-73
2022/01/12 04:54:22;;;;;;;0.00;0.00;;;;;;;;;;5069363;28;20209;-73
2022/01/12 04:56:49;;;;;;;0.00;0.00;;;;;;;;;;5069155;28;20214;-74
2022/01/12 04:59:16;;;;;;;0.90;0.90;;;;;;;;;;5068989;28;20201;-73
2022/01/12 05:01:52;;;;;;;0.10;0.10;;;;;;;;;;5069771;28;20230;-72
2022/01/12 05:07:23;;;;;;;0.37;0.37;;;;;;;;;;5069996;28;20698;-74
2022/01/12 05:12:43;;;;;;;8.27;4.07;;;;;;;;;;5069981;28;20194;-73
2022/01/12 05:12:53;;;;;;;0.63;0.63;;;;;;;;;;5058634;28;20337;-73
2022/01/12 05:15:28;;;;;;;2.87;2.37;;;;;;;;;;5054482;28;20306;-73
2022/01/12 05:17:55;;;;;;;0.00;0.00;;;;;;;;;;5053227;28;20811;-73
2022/01/12 05:20:24;;;;;;;0.10;0.10;;;;;;;;;;5053983;28;20210;-73
2022/01/12 05:22:52;;;;;;;0.20;0.20;;;;;;;;;;5054336;28;20218;-73
2022/01/12 05:25:21;;;;;;;0.00;0.00;;;;;;;;;;5049963;28;21481;-72
2022/01/12 05:27:49;;;;;;;0.00;0.00;;;;;;;;;;5052219;28;20293;-72
2022/01/12 05:30:16;;;;;;;0.47;0.47;;;;;;;;;;5053025;28;20210;-72
2022/01/12 05:32:45;;;;;;;0.00;0.00;;;;;;;;;;5054942;28;20539;-74
2022/01/12 05:35:13;;;;;;;0.03;0.03;;;;;;;;;;5054604;28;20719;-72
2022/01/12 05:37:44;;;;;;;0.00;0.00;;;;;;;;;;5053319;28;20195;-72
2022/01/12 05:40:12;;;;;;;0.00;0.00;;;;;;;;;;5055456;28;20428;-72
2022/01/12 05:42:39;;;;;;;0.00;0.00;;;;;;;;;;5051238;28;20238;-71
2022/01/12 05:45:07;;;;;;;0.00;0.00;;;;;;;;;;5048042;28;20191;-72
2022/01/12 05:49:34;;;;;;;0.30;0.30;;;;;;;;;;5047565;28;20698;-72
2022/01/12 05:50:27;;;;;;;0.80;0.80;;;;;;;;;;5049460;28;20715;-73
2022/01/12 05:52:56;;;;;;;0.00;0.00;;;;;;;;;;5050370;28;20726;-73
2022/01/12 05:55:24;;;;;;;0.00;0.00;;;;;;;;;;5051978;28;20403;-74
2022/01/12 05:57:51;;;;;;;0.00;0.00;;;;;;;;;;5052331;28;20191;-74
2022/01/12 06:00:20;;;;;;;0.13;0.13;;;;;;;;;;5051657;28;20198;-73
2022/01/12 06:02:48;;;;;;;0.00;0.00;;;;;;;;;;5054814;28;20552;-74
2022/01/12 06:05:18;;;;;;;2.10;1.23;;;;;;;;;;5055557;28;20198;-73
2022/01/12 06:07:46;;;;;;;0.00;0.00;;;;;;;;;;5058082;28;20245;-73
2022/01/12 06:10:15;;;;;;;0.00;0.00;;;;;;;;;;5055364;28;20207;-71
2022/01/12 06:12:42;;;;;;;0.00;0.00;;;;;;;;;;5052013;28;20670;-72
2022/01/12 06:15:10;;;;;;;0.00;0.00;;;;;;;;;;5049488;28;20187;-71
2022/01/12 06:17:38;;;;;;;0.00;0.00;;;;;;;;;;5051469;28;22181;-71
2022/01/12 06:20:07;;;;;;;0.00;0.00;;;;;;;;;;5051358;28;20195;-75
2022/01/12 06:22:35;;;;;;;0.00;0.00;;;;;;;;;;5050674;28;20829;-74
2022/01/12 06:25:05;;;;;;;0.00;0.00;;;;;;;;;;5052110;28;20186;-74
2022/01/12 06:27:34;;;;;;;0.00;0.00;;;;;;;;;;5054581;28;20215;-73
2022/01/12 06:31:10;;;;;;;0.00;0.00;;;;;;;;;;5052015;28;20221;-73
2022/01/12 06:32:52;;;;;;;0.00;0.00;;;;;;;;;;5055078;28;20325;-73
2022/01/12 06:35:20;;;;;;;0.00;0.00;;;;;;;;;;5051396;28;20202;-72
2022/01/12 06:37:48;;;;;;;0.00;0.00;;;;;;;;;;5051708;28;20195;-73
2022/01/12 06:40:16;;;;;;;0.00;0.00;;;;;;;;;;5053557;28;20203;-73
2022/01/12 06:42:47;;;;;;;0.00;0.00;;;;;;;;;;5056051;28;20583;-70
2022/01/12 06:45:14;;;;;;;0.00;0.00;;;;;;;;;;5058273;28;20198;-73
2022/01/12 06:47:41;;;;;;;0.00;0.00;;;;;;;;;;5057221;28;20207;-73
2022/01/12 06:50:09;;;;;;;0.00;0.00;;;;;;;;;;5057814;28;20207;-73
2022/01/12 06:52:36;;;;;;;0.00;0.00;;;;;;;;;;5058929;28;20655;-74
2022/01/12 06:55:04;;;;;;;37.07;34.53;;;;;;;;;;5058080;28;20203;-72
2022/01/12 06:57:31;;;;;;;0.00;0.00;;;;;;;;;;5058104;28;20199;-74
2022/01/12 07:00:00;;;;;;;0.00;0.00;;;;;;;;;;5060505;28;20206;-73
2022/01/12 07:02:27;;;;;;;0.00;0.00;;;;;;;;;;5054807;28;20726;-73
2022/01/12 07:04:55;;;;;;;0.00;0.00;;;;;;;;;;5051574;28;20187;-73
2022/01/12 07:07:23;;;;;;;0.00;0.00;;;;;;;;;;5050053;28;20199;-73
2022/01/12 07:09:51;;;;;;;0.00;0.00;;;;;;;;;;5053083;28;20206;-72
2022/01/12 07:12:18;;;;;;;0.00;0.00;;;;;;;;;;5053029;28;20586;-73
2022/01/12 07:14:45;;;;;;;0.00;0.00;;;;;;;;;;5057399;28;20195;-72
2022/01/12 07:17:15;;;;;;;0.00;0.00;;;;;;;;;;5055534;28;20207;-72
2022/01/12 07:19:42;;;;;;;0.00;0.00;;;;;;;;;;5057309;28;20195;-72
2022/01/12 07:22:09;;;;;;;0.00;0.00;;;;;;;;;;5056139;28;20600;-72
2022/01/12 07:24:37;;;;;;;0.00;0.00;;;;;;;;;;5056901;28;20218;-71
2022/01/12 07:27:04;;;;;;;0.00;0.00;;;;;;;;;;5056492;28;20194;-72
2022/01/12 07:29:32;;;;;;;0.00;0.00;;;;;;;;;;5057436;28;20206;-73
2022/01/12 07:31:59;;;;;;;0.00;0.00;;;;;;;;;;5058434;28;20587;-73
2022/01/12 07:34:28;;;;;;;0.00;0.00;;;;;;;;;;5055951;28;20203;-73
2022/01/12 07:36:55;;;;;;;0.00;0.00;;;;;;;;;;5050604;28;20809;-72
2022/01/12 07:39:23;;;;;;;0.00;0.00;;;;;;;;;;5049910;28;20410;-76
2022/01/12 07:41:51;;;;;;;0.00;0.00;;;;;;;;;;5048178;28;20209;-72
2022/01/12 07:44:18;;;;;;;0.00;0.00;;;;;;;;;;5047516;28;20207;-72
2022/01/12 07:46:45;;;;;;;0.00;0.00;;;;;;;;;;5050094;28;20203;-72
2022/01/12 07:49:12;;;;;;;0.00;0.00;;;;;;;;;;5049724;28;20667;-73
2022/01/12 07:51:41;;;;;;;0.00;0.00;;;;;;;;;;5056732;28;20576;-72
2022/01/12 07:54:09;;;;;;;0.00;0.00;;;;;;;;;;5056527;28;20202;-72
2022/01/12 07:56:36;;;;;;;0.00;0.00;;;;;;;;;;5053748;28;20210;-73
2022/01/12 07:59:03;;;;;;;0.00;0.00;;;;;;;;;;5055456;28;20199;-76
2022/01/12 08:01:31;;;;;;;0.00;0.00;;;;;;;;;;5050005;28;20240;-71
2022/01/12 08:03:58;;;;;;;0.00;0.00;;;;;;;;;;5053876;28;20239;-73
2022/01/12 08:06:25;;;;;;;0.10;0.10;;;;;;;;;;5048774;28;20226;-73
2022/01/12 08:08:54;;;;;;;0.00;0.00;;;;;;;;;;5047649;28;20199;-73
2022/01/12 08:11:21;;;;;;;0.00;0.00;;;;;;;;;;5046362;28;20195;-75
2022/01/12 08:13:50;;;;;;;0.00;0.00;;;;;;;;;;5047866;28;20248;-73
2022/01/12 08:16:17;;;;;;;0.00;0.00;;;;;;;;;;5047606;28;20203;-74
2022/01/12 08:18:44;;;;;;;0.00;0.00;;;;;;;;;;5045925;28;20206;-75
2022/01/12 08:21:12;;;;;;;0.20;0.20;;;;;;;;;;5048343;28;20842;-74
2022/01/12 08:23:39;;;;;;;0.00;0.00;;;;;;;;;;5049964;28;20691;-75
2022/01/12 08:26:08;;;;;;;0.00;0.00;;;;;;;;;;5050049;28;20454;-75
2022/01/12 08:28:35;;;;;;;0.00;0.00;;;;;;;;;;5047823;28;20209;-75
2022/01/12 08:31:03;;;;;;;0.00;0.00;;;;;;;;;;5047758;28;20208;-74
2022/01/12 08:33:30;;;;;;;0.00;0.00;;;;;;;;;;5046300;28;20199;-76
2022/01/12 08:35:58;;;;;;;0.00;0.00;;;;;;;;;;5048610;28;20201;-75
2022/01/12 08:38:25;;;;;;;0.00;0.00;;;;;;;;;;5046696;28;20199;-75
2022/01/12 08:40:52;;;;;;;0.00;0.00;;;;;;;;;;5047319;28;20203;-74
2022/01/12 08:43:21;;;;;;;0.30;0.30;;;;;;;;;;5049193;28;20230;-73
2022/01/12 08:45:53;;;;;;;0.00;0.00;;;;;;;;;;5045906;28;20664;-71
2022/01/12 08:48:21;;;;;;;0.00;0.00;;;;;;;;;;5045516;28;20195;-74
2022/01/12 08:50:48;;;;;;;0.00;0.00;;;;;;;;;;5048343;28;21540;-74
2022/01/12 08:53:16;;;;;;;0.00;0.00;;;;;;;;;;5048761;28;20203;-77
2022/01/12 08:55:43;;;;;;;0.00;0.00;;;;;;;;;;5050609;28;20247;-72
2022/01/12 08:58:10;;;;;;;0.00;0.00;;;;;;;;;;5052459;28;20346;-72
2022/01/12 09:00:39;;;;;;;0.30;0.30;;;;;;;;;;5054462;28;20187;-72
2022/01/12 09:03:08;;;;;;;0.00;0.00;;;;;;;;;;5054845;28;20282;-71
2022/01/12 09:05:35;;;;;;;0.00;0.00;;;;;;;;;;5055016;28;20282;-73
2022/01/12 09:08:03;;;;;;;0.00;0.00;;;;;;;;;;5046863;28;20750;-72
2022/01/12 09:10:30;;;;;;;0.00;0.00;;;;;;;;;;5046990;28;20202;-73
2022/01/12 09:12:59;;;;;;;0.00;0.00;;;;;;;;;;5046866;28;20708;-72
2022/01/12 09:15:26;;;;;;;0.00;0.00;;;;;;;;;;5045449;28;20223;-74
2022/01/12 09:17:56;;;;;;;0.00;0.00;;;;;;;;;;5054528;28;20199;-74
2022/01/12 09:20:25;;;;;;;0.00;0.00;;;;;;;;;;5052718;28;20648;-76
2022/01/12 09:22:53;;;;;;;0.00;0.00;;;;;;;;;;5055020;28;20864;-75
2022/01/12 09:25:20;;;;;;;0.57;0.53;;;;;;;;;;5053201;28;20207;-75
2022/01/12 09:27:47;;;;;;;0.00;0.00;;;;;;;;;;5056567;28;20194;-74
2022/01/12 09:30:16;;;;;;;0.00;0.00;;;;;;;;;;5055270;28;20213;-74
2022/01/12 09:32:44;;;;;;;0.00;0.00;;;;;;;;;;5056945;28;20202;-75
2022/01/12 09:35:14;;;;;;;0.00;0.00;;;;;;;;;;5056910;28;20202;-72
2022/01/12 09:37:41;;;;;;;0.00;0.00;;;;;;;;;;5054327;28;20195;-78
2022/01/12 09:40:09;;;;;;;0.00;0.00;;;;;;;;;;5050804;28;20203;-73
2022/01/12 09:42:37;;;;;;;0.00;0.00;;;;;;;;;;5057342;28;20234;-76
2022/01/12 09:45:06;;;;;;;0.63;0.17;;;;;;;;;;5056236;28;20198;-75
2022/01/12 09:47:34;;;;;;;0.00;0.00;;;;;;;;;;5060686;28;20282;-74
2022/01/12 09:50:02;;;;;;;0.00;0.00;;;;;;;;;;5058505;28;20651;-73
2022/01/12 09:52:31;;;;;;;0.00;0.00;;;;;;;;;;5058086;28;20199;-73
2022/01/12 09:54:58;;;;;;;0.00;0.00;;;;;;;;;;5056248;28;20294;-75
2022/01/12 09:57:26;;;;;;;0.00;0.00;;;;;;;;;;5056090;28;20678;-76
2022/01/12 09:59:53;;;;;;;0.00;0.00;;;;;;;;;;5047747;28;20199;-76
2022/01/12 10:02:22;;;;;;;0.00;0.00;;;;;;;;;;5048423;28;20199;-73
2022/01/12 10:05:00;;;;;;;0.00;0.00;;;;;;;;;;5057557;28;20303;-73
2022/01/12 10:07:27;;;;;;;0.00;0.00;;;;;;;;;;5053008;28;20849;-72
2022/01/12 10:10:00;;;;;;;0.00;0.00;;;;;;;;;;5049123;28;20195;-72
2022/01/12 10:12:29;;;;;;;0.00;0.00;;;;;;;;;;5048528;28;20230;-72
2022/01/12 10:14:59;;;;;;;0.00;0.00;;;;;;;;;;5048940;28;20239;-72
2022/01/12 10:17:32;;;;;;;0.00;0.00;;;;;;;;;;5052220;28;20585;-79
2022/01/12 10:20:06;;;;;;;0.00;0.00;;;;;;;;;;5052705;28;20298;-76
2022/01/12 10:22:34;;;;;;;0.00;0.00;;;;;;;;;;5048140;28;20663;-75
2022/01/12 10:25:03;;;;;;;0.00;0.00;;;;;;;;;;5049946;28;20205;-75
2022/01/12 10:27:30;;;;;;;0.00;0.00;;;;;;;;;;5050652;28;20198;-79
2022/01/12 10:30:00;;;;;;;0.00;0.00;;;;;;;;;;5047224;28;20671;-82
2022/01/12 10:32:28;;;;;;;0.00;0.00;;;;;;;;;;5048860;28;20520;-72
2022/01/12 10:34:57;;;;;;;0.00;0.00;;;;;;;;;;5048421;28;20195;-73
2022/01/12 10:37:26;;;;;;;0.00;0.00;;;;;;;;;;5048139;28;20561;-72
2022/01/12 10:39:54;;;;;;;0.00;0.00;;;;;;;;;;5047157;28;20286;-71
2022/01/12 10:42:24;;;;;;;0.00;0.00;;;;;;;;;;5050697;28;20206;-70
2022/01/12 10:44:52;;;;;;;0.00;0.00;;;;;;;;;;5047608;28;20249;-71
2022/01/12 10:47:20;;;;;;;0.10;0.10;;;;;;;;;;5052398;28;20207;-71
2022/01/12 10:49:58;;;;;;;0.73;0.73;;;;;;;;;;5048659;28;20199;-72
2022/01/12 10:52:27;;;;;;;1.10;0.33;;;;;;;;;;5044593;28;20679;-73
2022/01/12 10:54:55;;;;;;;0.00;0.00;;;;;;;;;;5052652;28;20221;-72
2022/01/12 10:57:25;;;;;;;0.00;0.00;;;;;;;;;;5056550;28;20195;-78
2022/01/12 11:00:03;;;;;;;0.00;0.00;;;;;;;;;;5049707;28;20541;-73
2022/01/12 11:02:31;;;;;;;0.00;0.00;;;;;;;;;;5051649;28;20721;-73
2022/01/12 11:04:58;;;;;;;0.00;0.00;;;;;;;;;;5049982;28;21879;-73
2022/01/12 11:07:26;;;;;;;0.00;0.00;;;;;;;;;;5045827;28;20206;-74
2022/01/12 11:09:56;;;;;;;0.00;0.00;;;;;;;;;;5048984;28;21562;-76
2022/01/12 11:12:25;;;;;;;0.00;0.00;;;;;;;;;;5048399;28;21389;-73
2022/01/12 11:14:53;;;;;;;0.00;0.00;;;;;;;;;;5046702;28;20195;-73
2022/01/12 11:17:20;;;;;;;0.00;0.00;;;;;;;;;;5049495;28;20641;-74
2022/01/12 11:19:52;;;;;;;0.20;0.20;;;;;;;;;;5050937;28;20191;-72
2022/01/12 11:22:27;;;;;;;0.00;0.00;;;;;;;;;;5049983;28;20203;-74
2022/01/12 11:24:54;;;;;;;0.00;0.00;;;;;;;;;;5049633;28;20234;-77
2022/01/12 11:27:22;;;;;;;0.00;0.00;;;;;;;;;;5048430;28;20659;-82
2022/01/12 11:29:51;;;;;;;0.00;0.00;;;;;;;;;;5045456;28;20211;-75
2022/01/12 11:32:23;;;;;;;0.00;0.00;;;;;;;;;;5045663;28;20203;-76
2022/01/12 11:35:00;;;;;;;0.00;0.00;;;;;;;;;;5047176;28;20203;-76
2022/01/12 11:37:28;;;;;;;0.00;0.00;;;;;;;;;;5047012;28;20230;-75
2022/01/12 11:39:55;;;;;;;0.10;0.10;;;;;;;;;;5047107;28;20218;-76
2022/01/12 11:42:22;;;;;;;0.00;0.00;;;;;;;;;;5048976;28;20215;-73
2022/01/12 11:44:51;;;;;;;0.10;0.10;;;;;;;;;;5047961;28;20682;-77
2022/01/12 11:47:22;;;;;;;0.10;0.10;;;;;;;;;;5050180;28;20201;-75
2022/01/12 11:49:52;;;;;;;0.60;0.60;;;;;;;;;;5051694;28;20248;-75
2022/01/12 11:52:22;;;;;;;0.00;0.00;;;;;;;;;;5047380;28;20325;-76
2022/01/12 11:54:52;;;;;;;0.30;0.30;;;;;;;;;;5051817;28;20297;-75
2022/01/12 11:57:20;;;;;;;0.20;0.20;;;;;;;;;;5051775;28;20562;-74
2022/01/12 11:59:52;;;;;;;0.00;0.00;;;;;;;;;;5050238;28;20207;-72
2022/01/12 12:02:21;;;;;;;0.00;0.00;;;;;;;;;;5052401;28;20244;-77
2022/01/12 12:04:54;;;;;;;0.00;0.00;;;;;;;;;;5048552;28;20277;-78
2022/01/12 12:07:22;;;;;;;0.00;0.00;;;;;;;;;;5045202;28;20280;-78
2022/01/12 12:09:53;;;;;;;0.20;0.20;;;;;;;;;;5048228;28;20203;-74
2022/01/12 12:12:21;;;;;;;0.13;0.13;;;;;;;;;;5047191;28;20742;-71
2022/01/12 12:14:50;;;;;;;0.00;0.00;;;;;;;;;;5046882;28;20191;-70
2022/01/12 12:17:19;;;;;;;0.00;0.00;;;;;;;;;;5046283;28;20207;-68
2022/01/12 12:19:47;;;;;;;0.77;0.57;;;;;;;;;;5045846;28;20204;-72
2022/01/12 12:22:16;;;;;;;0.00;0.00;;;;;;;;;;5046717;28;20199;-72
2022/01/12 12:24:44;;;;;;;0.00;0.00;;;;;;;;;;5047753;28;20222;-72
2022/01/12 12:27:12;;;;;;;0.00;0.00;;;;;;;;;;5046274;28;20195;-72
2022/01/12 12:29:40;;;;;;;0.10;0.10;;;;;;;;;;5048109;28;20214;-71
2022/01/12 12:32:12;;;;;;;0.00;0.00;;;;;;;;;;5049509;28;20195;-70
2022/01/12 12:34:42;;;;;;;0.00;0.00;;;;;;;;;;5053976;28;20202;-71
2022/01/12 12:37:11;;;;;;;0.00;0.00;;;;;;;;;;5054822;28;20199;-74
2022/01/12 12:39:39;;;;;;;0.20;0.20;;;;;;;;;;5056039;28;20200;-78
2022/01/12 12:42:15;;;;;;;0.00;0.00;;;;;;;;;;5055513;28;20191;-76
2022/01/12 12:44:43;;;;;;;0.27;0.27;;;;;;;;;;5054909;28;20679;-70
2022/01/12 12:47:13;;;;;;;0.57;0.20;;;;;;;;;;5052740;28;20210;-69
2022/01/12 12:49:51;;;;;;;0.00;0.00;;;;;;;;;;5050163;28;20330;-70
2022/01/12 12:52:27;;;;;;;0.00;0.00;;;;;;;;;;5047537;28;20194;-69
2022/01/12 12:54:55;;;;;;;0.00;0.00;;;;;;;;;;5053385;28;20198;-69
2022/01/12 12:57:22;;;;;;;0.00;0.00;;;;;;;;;;5055424;28;20209;-69
2022/01/12 12:59:51;;;;;;;0.00;0.00;;;;;;;;;;5055211;28;20218;-69
2022/01/12 13:02:19;;;;;;;0.00;0.00;;;;;;;;;;5054693;28;20191;-69
2022/01/12 13:04:46;;;;;;;0.00;0.00;;;;;;;;;;5055648;28;20602;-69
2022/01/12 13:07:17;;;;;;;0.10;0.10;;;;;;;;;;5054539;28;20199;-69
2022/01/12 13:09:45;;;;;;;1.07;1.07;;;;;;;;;;5054565;28;20321;-69
2022/01/12 13:12:12;;;;;;;1.40;1.30;;;;;;;;;;5053076;28;20375;-69
2022/01/12 13:14:44;;;;;;;0.00;0.00;;;;;;;;;;5054505;28;21003;-68
2022/01/12 13:17:12;;;;;;;0.97;0.97;;;;;;;;;;5056362;28;20203;-70
2022/01/12 13:22:32;;;;;;;0.47;0.47;;;;;;;;;;4996707;28;20197;-70
2022/01/12 13:25:01;;;;;;;2.47;1.57;;;;;;;;;;5054298;28;20234;-69
2022/01/12 13:27:29;;;;;;;1.23;0.47;;;;;;;;;;5054310;28;20317;-69
2022/01/12 13:29:56;;;;;;;0.00;0.00;;;;;;;;;;5053506;28;20207;-68
2022/01/12 13:32:23;;;;;;;0.10;0.10;;;;;;;;;;5054372;28;20207;-67
2022/01/12 13:34:58;;;;;;;0.00;0.00;;;;;;;;;;5055886;28;20256;-68
2022/01/12 13:37:26;;;;;;;0.00;0.00;;;;;;;;;;5054491;28;20222;-69
2022/01/12 13:40:09;;;;;;;0.00;0.00;;;;;;;;;;5056432;28;20210;-69
2022/01/12 13:42:47;;;;;;;0.00;0.00;;;;;;;;;;5054987;28;20221;-69
2022/01/12 13:45:17;;;;;;;0.00;0.00;;;;;;;;;;5055440;28;20230;-69
2022/01/12 13:47:49;;;;;;;0.10;0.10;;;;;;;;;;5054342;28;21816;-67
2022/01/12 13:50:19;;;;;;;0.47;0.47;;;;;;;;;;5055563;28;20545;-67
2022/01/12 13:52:56;;;;;;;0.00;0.00;;;;;;;;;;5056880;28;20197;-67
2022/01/12 13:55:24;;;;;;;0.00;0.00;;;;;;;;;;5055837;28;20308;-68
2022/01/12 13:57:59;;;;;;;0.00;0.00;;;;;;;;;;5057585;28;20589;-66
2022/01/12 14:00:30;;;;;;;0.00;0.00;;;;;;;;;;5056434;28;21679;-67
2022/01/12 14:02:58;;;;;;;0.00;0.00;;;;;;;;;;5056025;28;20281;-69
2022/01/12 14:05:33;;;;;;;0.00;0.00;;;;;;;;;;5054625;28;20623;-69
2022/01/12 14:08:05;;;;;;;0.00;0.00;;;;;;;;;;5052326;28;20199;-70
2022/01/12 14:10:34;;;;;;;0.00;0.00;;;;;;;;;;5050911;28;20207;-71
2022/01/12 14:13:02;;;;;;;0.00;0.00;;;;;;;;;;5052952;28;20233;-70
2022/01/12 14:15:32;;;;;;;0.20;0.20;;;;;;;;;;5057943;28;20253;-71
2022/01/12 14:18:01;;;;;;;0.00;0.00;;;;;;;;;;5057731;28;20289;-72
2022/01/12 14:20:31;;;;;;;0.00;0.00;;;;;;;;;;5058185;28;20199;-70
2022/01/12 14:23:00;;;;;;;0.00;0.00;;;;;;;;;;5053993;28;21424;-71
2022/01/12 14:25:41;;;;;;;0.00;0.00;;;;;;;;;;5051373;28;20746;-70
2022/01/12 14:28:10;;;;;;;0.00;0.00;;;;;;;;;;5053050;28;20286;-71
2022/01/12 14:30:37;;;;;;;0.00;0.00;;;;;;;;;;5054067;28;20770;-71
2022/01/12 14:33:06;;;;;;;0.37;0.37;;;;;;;;;;5049304;28;20230;-72
2022/01/12 14:35:33;;;;;;;0.00;0.00;;;;;;;;;;5052069;28;20214;-73
2022/01/12 14:38:01;;;;;;;0.13;0.13;;;;;;;;;;5051785;28;20209;-71
2022/01/12 14:40:29;;;;;;;0.00;0.00;;;;;;;;;;5053005;28;20210;-71
2022/01/12 14:43:00;;;;;;;0.00;0.00;;;;;;;;;;5051374;28;20234;-70
2022/01/12 14:45:28;;;;;;;0.00;0.00;;;;;;;;;;5049772;28;20511;-70
2022/01/12 14:47:57;;;;;;;0.10;0.10;;;;;;;;;;5053142;28;20210;-71
2022/01/12 14:50:25;;;;;;;0.00;0.00;;;;;;;;;;5052627;28;20218;-70
2022/01/12 14:52:53;;;;;;;0.00;0.00;;;;;;;;;;5054278;28;20211;-70
2022/01/12 14:55:20;;;;;;;0.00;0.00;;;;;;;;;;5053953;28;20269;-70
2022/01/12 14:57:48;;;;;;;0.00;0.00;;;;;;;;;;5054313;28;20201;-70
2022/01/12 15:00:24;;;;;;;0.00;0.00;;;;;;;;;;5054932;28;20659;-70
2022/01/12 15:02:52;;;;;;;0.00;0.00;;;;;;;;;;5059369;28;20216;-70
2022/01/12 15:05:19;;;;;;;0.00;0.00;;;;;;;;;;5055203;28;20756;-72
2022/01/12 15:07:47;;;;;;;0.10;0.10;;;;;;;;;;5055667;28;20210;-71
2022/01/12 15:10:14;;;;;;;0.00;0.00;;;;;;;;;;5058507;28;20221;-70
2022/01/12 15:12:41;;;;;;;0.00;0.00;;;;;;;;;;5058283;28;20226;-70
2022/01/12 15:15:10;;;;;;;0.00;0.00;;;;;;;;;;5057978;28;20199;-71
2022/01/12 15:17:40;;;;;;;0.00;0.00;;;;;;;;;;5058224;28;20308;-71
2022/01/12 15:20:09;;;;;;;0.00;0.00;;;;;;;;;;5061545;28;20198;-71
2022/01/12 15:22:37;;;;;;;0.07;0.07;;;;;;;;;;5065834;28;20205;-72
2022/01/12 15:25:05;;;;;;;0.00;0.00;;;;;;;;;;5065155;28;20598;-71
2022/01/12 15:27:32;;;;;;;0.00;0.00;;;;;;;;;;5067361;28;20573;-69
2022/01/12 15:30:00;;;;;;;0.00;0.00;;;;;;;;;;5068611;28;20575;-71
2022/01/12 15:32:28;;;;;;;0.00;0.00;;;;;;;;;;5065734;28;20206;-71
2022/01/12 15:34:57;;;;;;;0.00;0.00;;;;;;;;;;5068162;28;20572;-71
2022/01/12 15:37:25;;;;;;;0.00;0.00;;;;;;;;;;5064714;28;20206;-70
2022/01/12 15:39:53;;;;;;;0.00;0.00;;;;;;;;;;5060741;28;20219;-72
2022/01/12 15:42:21;;;;;;;0.00;0.00;;;;;;;;;;5060976;28;20294;-70
2022/01/12 15:44:48;;;;;;;0.00;0.00;;;;;;;;;;5061269;28;20349;-70
2022/01/12 15:47:15;;;;;;;0.00;0.00;;;;;;;;;;5058657;28;20202;-71
2022/01/12 15:49:43;;;;;;;0.00;0.00;;;;;;;;;;5066280;28;20667;-70
2022/01/12 15:52:12;;;;;;;0.00;0.00;;;;;;;;;;5064850;28;20199;-73
2022/01/12 15:54:40;;;;;;;0.00;0.00;;;;;;;;;;5068378;28;20203;-67
2022/01/12 15:57:07;;;;;;;0.40;0.20;;;;;;;;;;5068857;28;20195;-68